Portada
METAR-TAF:

METAR-TAF

Aeroports :

Djanet, Algèria

latitud: 24-33N, longitud: 009-28E, altitud: 1054 m

Observació

L'informe es va fer fa 52 minuts, a les 19:00 UTC
Vent 1 kt amb direcció variable
Temperatura 12°C
Humitat 50%
Pressió 1024 hPa
Visibilitat 10 km o més
sense núvols per sota de 1500 mi sense presència de cumulonimbus.

METAR: DAAJ 101900Z VRB01KT CAVOK 12/02 Q1024

Hora: 20:52 (19:52 UTC)

Pronòstic

L'informe es va fer fa 2 hores i 52 minuts, a les 17:00 UTC
Pronòstic vàlid del 10 a les 18 UTC al 11 a les 18 UTC
Vent 8 kt del Oest/Sud-Oest
Visibilitat 10 km o més
sense núvols per sota de 1500 mi sense presència de cumulonimbus.
Evolucionant progressivament
l' 10 a les 20 UTC al 10 a les 23 UTC
Vent 8 kt del Est/Nord-Est

TAF: DAAJ 101700Z 1018/1118 24008KT CAVOK BECMG 1020/1023 06008KT

Observacions i pronòstics meteorològics de més de 4000 aeroports (METAR i TAF).

Les estacions disponibles són els punts grocs i vermells al mapa.

Posi el ratolí al punt desitjat per veure el nom de l'estació.

Feu clic per veure les observacions i els pronòstics meteorològics.

Per canviar el mapa: feu clic els botons verds amb una creu de color negre per apropar; al botó verd amb un guió per allunyar la imatge; o en les fletxes verdes per a mapes adjacents.


METAR-TAF: